createdAt,value
2023-05-01T00:07:27.751Z,1019.33
2023-05-01T00:17:34.463Z,1019.31
2023-05-01T00:27:41.376Z,1019.20
2023-05-01T00:37:48.381Z,1019.19
2023-05-01T00:47:55.898Z,1019.06
2023-05-01T00:58:03.619Z,1019.03
2023-05-01T01:08:10.518Z,1018.93
2023-05-01T01:18:17.779Z,1018.93
2023-05-01T01:28:24.685Z,1018.81
2023-05-01T01:38:32.074Z,1018.80
2023-05-01T01:48:38.682Z,1018.74
2023-05-01T01:58:44.855Z,1018.57
2023-05-01T02:08:51.568Z,1018.52
2023-05-01T02:18:58.773Z,1018.47
2023-05-01T02:29:05.595Z,1018.33
2023-05-01T02:39:12.878Z,1018.26
2023-05-01T02:49:19.921Z,1018.12
2023-05-01T02:59:27.250Z,1018.01
2023-05-01T03:09:34.361Z,1017.86
2023-05-01T03:19:41.282Z,1017.81
2023-05-01T03:29:48.443Z,1017.71
2023-05-01T03:39:55.492Z,1017.66
2023-05-01T03:50:03.474Z,1017.74
2023-05-01T04:00:10.241Z,1017.73
2023-05-01T04:10:17.087Z,1017.64
2023-05-01T04:20:24.566Z,1017.63
2023-05-01T04:30:31.209Z,1017.57
2023-05-01T04:40:38.381Z,1017.52
2023-05-01T04:50:45.717Z,1017.41
2023-05-01T05:00:52.625Z,1017.44
2023-05-01T05:10:59.745Z,1017.36
2023-05-01T05:21:07.318Z,1017.33
2023-05-01T05:31:14.666Z,1017.23
2023-05-01T05:41:21.761Z,1017.12
2023-05-01T05:51:28.726Z,1017.03
2023-05-01T06:01:35.587Z,1017.03
2023-05-01T06:11:42.846Z,1017.02
2023-05-01T06:21:49.740Z,1017.02
2023-05-01T06:31:56.920Z,1016.96
2023-05-01T06:42:04.026Z,1016.96
2023-05-01T06:52:10.832Z,1016.91
2023-05-01T07:02:18.338Z,1016.85
2023-05-01T07:12:25.642Z,1016.83
2023-05-01T07:22:32.961Z,1016.79
2023-05-01T07:32:40.314Z,1016.67
2023-05-01T07:42:48.009Z,1016.61
2023-05-01T07:52:55.012Z,1016.49
2023-05-01T08:03:02.486Z,1016.42
2023-05-01T08:13:09.209Z,1016.23
2023-05-01T08:23:16.518Z,1016.14
2023-05-01T08:33:23.526Z,1016.10
2023-05-01T08:43:30.176Z,1016.08
2023-05-01T08:53:37.652Z,1015.90
2023-05-01T09:03:44.595Z,1015.82
2023-05-01T09:13:51.823Z,1015.67
2023-05-01T09:23:58.791Z,1015.51
2023-05-01T09:34:05.924Z,1015.42
2023-05-01T09:44:13.104Z,1015.23
2023-05-01T09:54:19.983Z,1015.10
2023-05-01T10:04:26.828Z,1014.99
2023-05-01T10:14:33.870Z,1014.87
2023-05-01T10:24:41.341Z,1014.76
2023-05-01T10:34:48.724Z,1014.62
2023-05-01T10:44:55.512Z,1014.46
2023-05-01T10:55:02.774Z,1014.20
2023-05-01T11:05:10.058Z,1014.12
2023-05-01T11:15:16.888Z,1014.05
2023-05-01T11:25:23.326Z,1013.85
2023-05-01T11:35:30.418Z,1013.76
2023-05-01T11:45:37.316Z,1013.51
2023-05-01T11:55:45.245Z,1013.41
2023-05-01T12:05:52.664Z,1013.24
2023-05-01T12:16:00.168Z,1013.15
2023-05-01T12:26:07.411Z,1013.03
2023-05-01T12:36:14.900Z,1012.89
2023-05-01T12:46:21.918Z,1012.80
2023-05-01T12:56:29.473Z,1012.73
2023-05-01T13:06:35.452Z,1012.63
2023-05-01T13:16:42.534Z,1012.67
2023-05-01T13:26:49.625Z,1012.53
2023-05-01T13:36:56.887Z,1012.39
2023-05-01T13:47:03.790Z,1012.28
2023-05-01T13:57:10.861Z,1012.10
2023-05-01T14:07:17.984Z,1012.00
2023-05-01T14:17:24.853Z,1011.95
2023-05-01T14:27:32.149Z,1011.74
2023-05-01T14:37:39.230Z,1011.74
2023-05-01T14:47:45.961Z,1011.61
2023-05-01T14:57:53.372Z,1011.60
2023-05-01T15:08:00.215Z,1011.54
2023-05-01T15:18:07.092Z,1011.54
2023-05-01T15:28:14.979Z,1011.52
2023-05-01T15:38:22.485Z,1011.39
2023-05-01T15:48:29.044Z,1011.38
2023-05-01T15:58:35.176Z,1011.34
2023-05-01T16:08:42.517Z,1011.27
2023-05-01T16:18:49.822Z,1011.31
2023-05-01T16:28:56.417Z,1011.24
2023-05-01T16:39:03.659Z,1011.16
2023-05-01T16:49:10.518Z,1011.17
2023-05-01T16:59:17.310Z,1011.22
2023-05-01T17:09:24.824Z,1011.19
2023-05-01T17:19:32.156Z,1011.12
2023-05-01T17:29:38.845Z,1011.17
2023-05-01T17:39:46.382Z,1011.18
2023-05-01T17:49:53.001Z,1011.14
2023-05-01T18:00:00.571Z,1011.02
2023-05-01T18:10:07.869Z,1011.00
2023-05-01T18:20:15.054Z,1011.01
2023-05-01T18:30:22.093Z,1010.95
2023-05-01T18:40:29.319Z,1011.06
2023-05-01T18:50:36.023Z,1011.11
2023-05-01T19:00:42.076Z,1011.23
2023-05-01T19:10:49.573Z,1011.13
2023-05-01T19:20:56.688Z,1011.17
2023-05-01T19:31:04.043Z,1011.19
2023-05-01T19:41:11.166Z,1011.11
2023-05-01T19:51:18.208Z,1011.17
2023-05-01T20:01:25.600Z,1011.16
2023-05-01T20:11:32.375Z,1011.06
2023-05-01T20:21:39.499Z,1011.06
2023-05-01T20:31:46.684Z,1011.09
2023-05-01T20:41:53.919Z,1011.11
2023-05-01T20:52:00.910Z,1011.17
2023-05-01T21:02:08.184Z,1011.16
2023-05-01T21:12:15.624Z,1011.10
2023-05-01T21:22:22.778Z,1011.15
2023-05-01T21:32:29.818Z,1011.18
2023-05-01T21:42:36.693Z,1011.27
2023-05-01T21:52:43.737Z,1011.31
2023-05-01T22:02:51.419Z,1011.26
2023-05-01T22:12:58.067Z,1011.26
2023-05-01T22:23:05.052Z,1011.34
2023-05-01T22:33:12.482Z,1011.39
2023-05-01T22:43:19.045Z,1011.35
2023-05-01T22:53:26.176Z,1011.32
2023-05-01T23:03:34.641Z,1011.37
2023-05-01T23:13:44.014Z,1011.42
2023-05-01T23:23:50.200Z,1011.42
2023-05-01T23:33:57.754Z,1011.38
2023-05-01T23:44:04.307Z,1011.36
2023-05-01T23:54:10.321Z,1011.31
